createdAt,value
2023-04-18T00:00:36.964Z,8.10
2023-04-18T00:03:04.663Z,8.07
2023-04-18T00:05:31.965Z,8.05
2023-04-18T00:07:58.767Z,8.04
2023-04-18T00:10:25.859Z,8.05
2023-04-18T00:12:52.633Z,8.05
2023-04-18T00:15:19.419Z,8.08
2023-04-18T00:17:45.957Z,8.08
2023-04-18T00:20:12.939Z,8.07
2023-04-18T00:22:43.058Z,8.07
2023-04-18T00:25:11.132Z,8.09
2023-04-18T00:27:41.628Z,8.11
2023-04-18T00:30:09.752Z,8.10
2023-04-18T00:32:38.185Z,8.10
2023-04-18T00:35:05.393Z,8.08
2023-04-18T00:37:31.985Z,8.04
2023-04-18T00:39:59.796Z,7.99
2023-04-18T00:42:28.897Z,7.97
2023-04-18T00:44:55.583Z,7.96
2023-04-18T00:47:22.847Z,7.92
2023-04-18T00:49:51.322Z,7.91
2023-04-18T00:52:18.802Z,7.89
2023-04-18T00:54:48.041Z,7.90
2023-04-18T00:57:15.137Z,7.87
2023-04-18T00:59:42.663Z,7.87
2023-04-18T01:02:09.606Z,7.88
2023-04-18T01:04:37.341Z,7.88
2023-04-18T01:07:04.902Z,7.87
2023-04-18T01:09:31.808Z,7.84
2023-04-18T01:11:58.394Z,7.82
2023-04-18T01:14:24.945Z,7.80
2023-04-18T01:16:51.784Z,7.81
2023-04-18T01:19:19.300Z,7.82
2023-04-18T01:21:46.041Z,7.79
2023-04-18T01:24:17.688Z,7.77
2023-04-18T01:26:49.696Z,7.77
2023-04-18T01:29:16.523Z,7.76
2023-04-18T01:31:44.216Z,7.75
2023-04-18T01:34:11.689Z,7.75
2023-04-18T01:36:41.155Z,7.73
2023-04-18T01:39:11.131Z,7.72
2023-04-18T01:41:38.096Z,7.73
2023-04-18T01:44:05.117Z,7.74
2023-04-18T01:46:32.270Z,7.74
2023-04-18T01:49:01.160Z,7.73
2023-04-18T01:51:28.009Z,7.73
2023-04-18T01:53:55.259Z,7.75
2023-04-18T01:56:22.251Z,7.76
2023-04-18T01:58:48.780Z,7.75
2023-04-18T02:01:15.777Z,7.75
2023-04-18T02:03:43.895Z,7.72
2023-04-18T02:06:13.294Z,7.72
2023-04-18T02:08:41.314Z,7.72
2023-04-18T02:11:08.072Z,7.70
2023-04-18T02:13:34.914Z,7.69
2023-04-18T02:16:11.409Z,7.68
2023-04-18T02:18:40.119Z,7.66
2023-04-18T02:21:07.249Z,7.64
2023-04-18T02:23:33.747Z,7.64
2023-04-18T02:26:00.705Z,7.67
2023-04-18T02:28:28.804Z,7.68
2023-04-18T02:30:56.132Z,7.70
2023-04-18T02:33:23.931Z,7.71
2023-04-18T02:35:51.968Z,7.72
2023-04-18T02:38:18.568Z,7.72
2023-04-18T02:40:46.812Z,7.71
2023-04-18T02:43:13.601Z,7.71
2023-04-18T02:45:40.539Z,7.71
2023-04-18T02:48:08.523Z,7.71
2023-04-18T02:50:36.091Z,7.69
2023-04-18T02:53:02.923Z,7.70
2023-04-18T02:55:45.085Z,7.72
2023-04-18T02:58:12.113Z,7.72
2023-04-18T03:00:58.185Z,7.73
2023-04-18T03:03:43.303Z,7.72
2023-04-18T03:06:28.960Z,7.70
2023-04-18T03:08:56.644Z,7.69
2023-04-18T03:11:24.462Z,7.69
2023-04-18T03:13:51.380Z,7.68
2023-04-18T03:16:18.983Z,7.69
2023-04-18T03:18:45.739Z,7.69
2023-04-18T03:21:12.819Z,7.68
2023-04-18T03:23:39.750Z,7.68
2023-04-18T03:26:08.161Z,7.68
2023-04-18T03:28:37.714Z,7.69
2023-04-18T03:31:05.111Z,7.68
2023-04-18T03:33:34.692Z,7.69
2023-04-18T03:36:09.091Z,7.70
2023-04-18T03:38:35.946Z,7.71
2023-04-18T03:41:03.025Z,7.72
2023-04-18T03:43:33.509Z,7.72
2023-04-18T03:46:00.736Z,7.73
2023-04-18T03:48:28.960Z,7.74
2023-04-18T03:50:59.084Z,7.73
2023-04-18T03:53:25.987Z,7.73
2023-04-18T03:55:54.794Z,7.73
2023-04-18T03:58:25.248Z,7.71
2023-04-18T04:00:53.168Z,7.71
2023-04-18T04:03:20.077Z,7.70
2023-04-18T04:05:46.862Z,7.72
2023-04-18T04:08:16.464Z,7.71
2023-04-18T04:10:44.667Z,7.69
2023-04-18T04:13:11.466Z,7.66
2023-04-18T04:15:39.931Z,7.67
2023-04-18T04:18:09.336Z,7.68
2023-04-18T04:20:39.668Z,7.70
2023-04-18T04:23:13.516Z,7.69
2023-04-18T04:25:45.732Z,7.70
2023-04-18T04:28:31.922Z,7.70
2023-04-18T04:31:03.469Z,7.68
2023-04-18T04:33:33.241Z,7.70
2023-04-18T04:36:03.365Z,7.72
2023-04-18T04:38:33.027Z,7.71
2023-04-18T04:41:00.272Z,7.71
2023-04-18T04:43:28.981Z,7.70
2023-04-18T04:45:57.807Z,7.69
2023-04-18T04:48:25.091Z,7.68
2023-04-18T04:50:59.035Z,7.69
2023-04-18T04:53:32.458Z,7.70
2023-04-18T04:56:00.816Z,7.71
2023-04-18T04:58:28.152Z,7.71
2023-04-18T05:01:24.284Z,7.73
2023-04-18T05:03:52.546Z,7.74
2023-04-18T05:06:20.923Z,7.73
2023-04-18T05:08:48.235Z,7.73
2023-04-18T05:11:15.792Z,7.75
2023-04-18T05:13:42.629Z,7.76
2023-04-18T05:16:09.695Z,7.75
2023-04-18T05:18:39.530Z,7.73
2023-04-18T05:21:06.227Z,7.73
2023-04-18T05:23:35.181Z,7.70
2023-04-18T05:26:02.081Z,7.71
2023-04-18T05:28:28.751Z,7.72
2023-04-18T05:31:05.729Z,7.71
2023-04-18T05:33:32.508Z,7.72
2023-04-18T05:35:59.753Z,7.75
2023-04-18T05:38:26.538Z,7.99
2023-04-18T05:40:55.913Z,8.24
2023-04-18T05:43:23.340Z,8.75
2023-04-18T05:45:52.748Z,8.99
2023-04-18T05:48:19.639Z,9.30
2023-04-18T05:50:46.429Z,9.49
2023-04-18T05:53:13.395Z,9.55
2023-04-18T05:55:41.140Z,9.51
2023-04-18T05:58:07.876Z,9.42
2023-04-18T06:00:36.145Z,9.33
2023-04-18T06:03:03.479Z,9.21
2023-04-18T06:05:30.773Z,9.07
2023-04-18T06:07:57.779Z,9.01
2023-04-18T06:10:24.450Z,9.00
2023-04-18T06:12:51.033Z,8.97
2023-04-18T06:15:17.763Z,8.95
2023-04-18T06:17:44.927Z,8.93
2023-04-18T06:20:13.373Z,8.86
2023-04-18T06:22:40.852Z,8.81
2023-04-18T06:25:10.025Z,8.85
2023-04-18T06:27:38.072Z,8.91
2023-04-18T06:30:08.427Z,8.96
2023-04-18T06:32:35.439Z,8.94
2023-04-18T06:35:02.415Z,8.82
2023-04-18T06:37:29.352Z,8.82
2023-04-18T06:39:56.260Z,8.90
2023-04-18T06:42:23.073Z,8.93
2023-04-18T06:44:50.099Z,8.96
2023-04-18T06:47:18.659Z,8.96
2023-04-18T06:49:45.543Z,9.02
2023-04-18T06:52:12.170Z,9.07
2023-04-18T06:54:38.810Z,9.13
2023-04-18T06:57:05.543Z,9.16
2023-04-18T06:59:32.398Z,9.21
2023-04-18T07:01:59.058Z,9.28
2023-04-18T07:04:26.235Z,9.39
2023-04-18T07:06:53.281Z,9.47
2023-04-18T07:09:20.875Z,9.54
2023-04-18T07:11:52.471Z,9.49
2023-04-18T07:14:23.614Z,9.51
2023-04-18T07:16:50.957Z,9.52
2023-04-18T07:19:17.937Z,9.59
2023-04-18T07:21:46.329Z,9.66
2023-04-18T07:24:13.338Z,9.67
2023-04-18T07:26:41.182Z,9.74
2023-04-18T07:29:08.199Z,9.81
2023-04-18T07:31:35.147Z,9.81
2023-04-18T07:34:02.113Z,9.86
2023-04-18T07:36:29.031Z,9.91
2023-04-18T07:38:55.589Z,9.98
2023-04-18T07:41:22.343Z,10.05
2023-04-18T07:43:49.027Z,10.09
2023-04-18T07:46:15.907Z,10.11
2023-04-18T07:48:42.478Z,10.16
2023-04-18T07:51:09.046Z,10.25
2023-04-18T07:53:35.977Z,10.31
2023-04-18T07:56:02.872Z,10.43
2023-04-18T07:58:30.566Z,10.42
2023-04-18T08:00:57.679Z,10.44
2023-04-18T08:03:24.596Z,10.46
2023-04-18T08:05:51.983Z,10.52
2023-04-18T08:08:18.767Z,10.56
2023-04-18T08:10:45.431Z,10.54
2023-04-18T08:13:14.750Z,10.58
2023-04-18T08:15:41.565Z,10.65
2023-04-18T08:18:08.857Z,10.69
2023-04-18T08:20:37.147Z,10.76
2023-04-18T08:23:08.625Z,10.80
2023-04-18T08:25:36.629Z,10.85
2023-04-18T08:28:04.322Z,10.85
2023-04-18T08:30:31.495Z,10.94
2023-04-18T08:33:00.499Z,10.94
2023-04-18T08:35:27.305Z,10.99
2023-04-18T08:37:53.906Z,11.05
2023-04-18T08:40:21.036Z,11.11
2023-04-18T08:42:48.283Z,11.32
2023-04-18T08:45:15.397Z,11.53
2023-04-18T08:47:42.632Z,11.67
2023-04-18T08:50:11.360Z,11.78
2023-04-18T08:52:39.892Z,11.86
2023-04-18T08:55:07.545Z,11.87
2023-04-18T08:57:36.399Z,11.86
2023-04-18T09:00:10.561Z,11.98
2023-04-18T09:02:43.057Z,12.19
2023-04-18T09:05:15.008Z,12.33
2023-04-18T09:07:42.719Z,12.48
2023-04-18T09:10:10.151Z,12.63
2023-04-18T09:12:50.673Z,12.66
2023-04-18T09:15:23.342Z,12.70
2023-04-18T09:17:56.599Z,12.66
2023-04-18T09:20:44.024Z,12.66
2023-04-18T09:23:15.009Z,12.74
2023-04-18T09:25:45.005Z,12.76
2023-04-18T09:28:33.481Z,12.82
2023-04-18T09:31:14.551Z,12.74
2023-04-18T09:33:52.812Z,12.70
2023-04-18T09:36:29.212Z,12.71
2023-04-18T09:38:57.222Z,12.81
2023-04-18T09:41:38.511Z,12.83
2023-04-18T09:44:15.520Z,12.86
2023-04-18T09:46:46.576Z,12.95
2023-04-18T09:49:14.041Z,13.09
2023-04-18T09:51:42.141Z,13.13
2023-04-18T09:54:17.005Z,13.15
2023-04-18T09:56:45.904Z,13.21
2023-04-18T09:59:17.735Z,13.23
2023-04-18T10:01:48.493Z,13.23
2023-04-18T10:04:17.039Z,13.29
2023-04-18T10:06:46.536Z,13.32
2023-04-18T10:09:14.703Z,13.22
2023-04-18T10:11:41.875Z,13.14
2023-04-18T10:14:13.336Z,13.16
2023-04-18T10:16:40.901Z,13.20
2023-04-18T10:19:30.198Z,13.15
2023-04-18T10:21:59.157Z,13.18
2023-04-18T10:24:53.568Z,13.20
2023-04-18T10:27:54.839Z,13.22
2023-04-18T10:30:41.323Z,13.18
2023-04-18T10:33:40.960Z,13.22
2023-04-18T10:36:08.972Z,13.17
2023-04-18T10:38:45.480Z,13.04
2023-04-18T10:41:28.995Z,13.00
2023-04-18T10:44:08.905Z,12.98
2023-04-18T10:46:40.116Z,13.02
2023-04-18T10:52:06.039Z,13.01
2023-04-18T10:54:37.062Z,13.00
2023-04-18T10:57:05.707Z,13.10
2023-04-18T10:59:34.829Z,13.21
2023-04-18T11:02:30.280Z,13.38
2023-04-18T11:05:04.547Z,13.48
2023-04-18T11:07:37.149Z,13.46
2023-04-18T11:10:05.716Z,13.31
2023-04-18T11:12:34.865Z,13.16
2023-04-18T11:15:09.454Z,13.07
2023-04-18T11:17:36.141Z,13.05
2023-04-18T11:20:09.167Z,13.00
2023-04-18T11:22:53.373Z,13.01
2023-04-18T11:25:23.678Z,13.04
2023-04-18T11:27:57.508Z,13.00
2023-04-18T11:30:24.157Z,13.08
2023-04-18T11:32:51.749Z,13.13
2023-04-18T11:35:19.656Z,13.24
2023-04-18T11:37:46.162Z,13.36
2023-04-18T11:40:13.847Z,13.62
2023-04-18T11:42:41.817Z,13.81
2023-04-18T11:45:15.506Z,14.03
2023-04-18T11:47:43.360Z,14.19
2023-04-18T11:50:12.810Z,14.33
2023-04-18T11:52:41.422Z,14.48
2023-04-18T11:55:14.649Z,14.62
2023-04-18T11:57:41.999Z,14.71
2023-04-18T12:00:10.762Z,14.85
2023-04-18T12:02:45.299Z,14.89
2023-04-18T12:05:14.971Z,14.88
2023-04-18T12:07:44.639Z,14.96
2023-04-18T12:10:19.986Z,15.04
2023-04-18T12:13:00.190Z,15.18
2023-04-18T12:15:28.768Z,15.15
2023-04-18T12:18:16.669Z,15.38
2023-04-18T12:20:53.998Z,15.62
2023-04-18T12:23:37.195Z,15.76
2023-04-18T12:26:05.821Z,15.55
2023-04-18T12:28:33.606Z,15.54
2023-04-18T12:31:00.429Z,15.46
2023-04-18T12:33:27.539Z,15.67
2023-04-18T12:35:54.636Z,15.70
2023-04-18T12:38:22.510Z,15.60
2023-04-18T12:40:51.043Z,15.47
2023-04-18T12:43:18.168Z,15.51
2023-04-18T12:45:46.194Z,15.64
2023-04-18T12:48:13.147Z,15.55
2023-04-18T12:50:39.613Z,15.30
2023-04-18T12:53:06.236Z,15.32
2023-04-18T12:55:32.986Z,15.54
2023-04-18T12:57:59.903Z,15.71
2023-04-18T13:00:29.876Z,15.90
2023-04-18T13:02:58.034Z,15.96
2023-04-18T13:05:29.932Z,15.89
2023-04-18T13:14:27.324Z,15.67
2023-04-18T13:20:51.936Z,16.08
2023-04-18T13:23:18.342Z,16.41
2023-04-18T13:25:45.080Z,16.23
2023-04-18T13:28:11.516Z,16.30
2023-04-18T13:30:38.072Z,16.53
2023-04-18T13:33:04.527Z,16.64
2023-04-18T13:35:31.479Z,16.68
2023-04-18T13:37:58.372Z,16.63
2023-04-18T13:40:25.233Z,16.72
2023-04-18T13:42:52.458Z,16.64
2023-04-18T13:45:19.411Z,16.72
2023-04-18T13:47:46.166Z,16.85
2023-04-18T13:50:13.246Z,16.95
2023-04-18T13:52:39.992Z,16.90
2023-04-18T13:55:07.120Z,16.59
2023-04-18T13:57:34.731Z,16.36
2023-04-18T14:00:01.740Z,16.24
2023-04-18T14:02:38.647Z,16.14
2023-04-18T14:05:06.887Z,16.06
2023-04-18T14:07:34.226Z,15.93
2023-04-18T14:10:00.917Z,15.78
2023-04-18T14:12:27.534Z,15.55
2023-04-18T14:14:53.981Z,15.48
2023-04-18T14:17:20.518Z,15.44
2023-04-18T14:19:47.933Z,15.42
2023-04-18T14:22:14.576Z,15.31
2023-04-18T14:24:41.429Z,15.17
2023-04-18T14:27:08.061Z,15.06
2023-04-18T14:29:34.798Z,15.04
2023-04-18T14:32:01.437Z,15.11
2023-04-18T14:34:28.015Z,15.25
2023-04-18T14:36:54.738Z,15.47
2023-04-18T14:39:21.623Z,15.72
2023-04-18T14:41:48.278Z,15.89
2023-04-18T14:44:14.875Z,15.98
2023-04-18T14:46:42.442Z,16.03
2023-04-18T14:49:09.010Z,15.89
2023-04-18T14:51:35.649Z,15.69
2023-04-18T14:54:02.232Z,15.47
2023-04-18T14:56:28.818Z,15.34
2023-04-18T14:58:55.483Z,15.22
2023-04-18T15:04:17.605Z,15.18
2023-04-18T15:06:45.427Z,15.26
2023-04-18T15:09:13.786Z,15.27
2023-04-18T15:11:40.372Z,15.27
2023-04-18T15:14:07.340Z,15.20
2023-04-18T15:16:35.447Z,15.10
2023-04-18T15:19:02.972Z,14.98
2023-04-18T15:21:29.916Z,14.95
2023-04-18T15:23:57.335Z,14.95
2023-04-18T15:26:24.206Z,15.01
2023-04-18T15:28:53.889Z,15.04
2023-04-18T15:31:21.746Z,15.07
2023-04-18T15:33:48.280Z,15.05
2023-04-18T15:36:14.791Z,14.99
2023-04-18T15:38:42.424Z,14.98
2023-04-18T15:41:09.996Z,15.09
2023-04-18T15:43:36.506Z,15.24
2023-04-18T15:46:04.118Z,15.30
2023-04-18T15:48:34.981Z,15.28
2023-04-18T15:51:01.617Z,15.19
2023-04-18T15:53:28.609Z,15.15
2023-04-18T15:55:55.731Z,15.08
2023-04-18T15:58:23.249Z,15.05
2023-04-18T16:00:51.301Z,15.08
2023-04-18T16:03:17.954Z,15.07
2023-04-18T16:05:44.636Z,14.98
2023-04-18T16:08:11.244Z,14.90
2023-04-18T16:10:38.047Z,14.86
2023-04-18T16:13:06.689Z,14.79
2023-04-18T16:15:41.450Z,14.80
2023-04-18T16:18:08.525Z,14.92
2023-04-18T16:20:35.834Z,14.98
2023-04-18T16:23:02.835Z,15.04
2023-04-18T16:25:29.333Z,15.00
2023-04-18T16:27:57.084Z,15.04
2023-04-18T16:30:23.571Z,15.02
2023-04-18T16:32:50.948Z,14.99
2023-04-18T16:35:18.003Z,14.98
2023-04-18T16:37:44.968Z,14.93
2023-04-18T16:40:12.659Z,14.85
2023-04-18T16:42:41.267Z,14.76
2023-04-18T16:45:09.200Z,14.68
2023-04-18T16:47:36.001Z,14.62
2023-04-18T16:50:02.603Z,14.60
2023-04-18T16:52:29.197Z,14.58
2023-04-18T16:54:55.939Z,14.53
2023-04-18T16:57:22.502Z,14.50
2023-04-18T16:59:49.041Z,14.46
2023-04-18T17:02:15.749Z,14.41
2023-04-18T17:04:42.807Z,14.36
2023-04-18T17:07:09.418Z,14.31
2023-04-18T17:09:35.917Z,14.27
2023-04-18T17:12:02.561Z,14.23
2023-04-18T17:14:29.164Z,14.17
2023-04-18T17:16:56.077Z,14.11
2023-04-18T17:19:23.029Z,14.05
2023-04-18T17:21:50.871Z,14.01
2023-04-18T17:24:18.694Z,13.99
2023-04-18T17:26:45.235Z,13.95
2023-04-18T17:29:12.956Z,13.92
2023-04-18T17:31:39.804Z,13.89
2023-04-18T17:34:06.452Z,13.86
2023-04-18T17:36:35.758Z,13.80
2023-04-18T17:39:11.634Z,13.75
2023-04-18T17:41:40.661Z,13.72
2023-04-18T17:44:08.285Z,13.70
2023-04-18T17:46:34.983Z,13.68
2023-04-18T17:49:02.772Z,13.67
2023-04-18T17:51:29.326Z,13.68
2023-04-18T17:53:55.841Z,13.65
2023-04-18T17:56:22.728Z,13.64
2023-04-18T17:58:49.878Z,13.63
2023-04-18T18:01:21.121Z,13.61
2023-04-18T18:03:48.715Z,13.59
2023-04-18T18:06:15.948Z,13.57
2023-04-18T18:08:43.240Z,13.54
2023-04-18T18:11:11.362Z,13.50
2023-04-18T18:13:40.812Z,13.46
2023-04-18T18:16:08.849Z,13.44
2023-04-18T18:18:36.368Z,13.41
2023-04-18T18:21:03.058Z,13.37
2023-04-18T18:23:31.967Z,13.36
2023-04-18T18:25:58.916Z,13.30
2023-04-18T18:28:25.634Z,13.23
2023-04-18T18:30:52.209Z,13.16
2023-04-18T18:33:19.011Z,13.10
2023-04-18T18:35:45.738Z,13.04
2023-04-18T18:38:12.237Z,12.98
2023-04-18T18:40:38.812Z,12.92
2023-04-18T18:43:05.579Z,12.88
2023-04-18T18:45:32.193Z,12.84
2023-04-18T18:47:58.860Z,12.81
2023-04-18T18:50:25.498Z,12.78
2023-04-18T18:52:52.063Z,12.75
2023-04-18T18:55:18.628Z,12.71
2023-04-18T18:57:45.178Z,12.68
2023-04-18T19:00:13.340Z,12.66
2023-04-18T19:02:40.207Z,12.61
2023-04-18T19:05:07.148Z,12.58
2023-04-18T19:07:33.685Z,12.55
2023-04-18T19:10:01.630Z,12.51
2023-04-18T19:12:29.084Z,12.46
2023-04-18T19:14:55.717Z,12.43
2023-04-18T19:17:24.867Z,12.38
2023-04-18T19:19:53.185Z,12.33
2023-04-18T19:22:19.805Z,12.27
2023-04-18T19:24:46.698Z,12.24
2023-04-18T19:27:13.246Z,12.20
2023-04-18T19:29:39.849Z,12.16
2023-04-18T19:32:06.741Z,12.10
2023-04-18T19:34:33.270Z,12.05
2023-04-18T19:37:01.555Z,12.00
2023-04-18T19:39:28.384Z,11.98
2023-04-18T19:41:54.916Z,11.98
2023-04-18T19:44:21.502Z,12.00
2023-04-18T19:46:48.080Z,12.03
2023-04-18T19:49:15.025Z,12.03
2023-04-18T19:51:42.061Z,12.03
2023-04-18T19:54:08.626Z,12.01
2023-04-18T19:56:35.136Z,12.01
2023-04-18T19:59:01.812Z,11.99
2023-04-18T20:01:28.390Z,11.97
2023-04-18T20:03:58.506Z,11.96
2023-04-18T20:06:26.826Z,11.94
2023-04-18T20:08:56.179Z,11.90
2023-04-18T20:11:22.861Z,11.86
2023-04-18T20:13:49.985Z,11.83
2023-04-18T20:16:17.266Z,11.80
2023-04-18T20:18:47.339Z,11.77
2023-04-18T20:21:14.121Z,11.76
2023-04-18T20:23:42.453Z,11.71
2023-04-18T20:26:09.304Z,11.66
2023-04-18T20:28:36.638Z,11.60
2023-04-18T20:31:03.818Z,11.55
2023-04-18T20:33:30.560Z,11.48
2023-04-18T20:35:58.904Z,11.44
2023-04-18T20:38:29.370Z,11.40
2023-04-18T20:40:58.004Z,11.35
2023-04-18T20:43:28.506Z,11.34
2023-04-18T20:45:57.645Z,11.30
2023-04-18T20:48:24.490Z,11.26
2023-04-18T20:50:51.445Z,11.24
2023-04-18T20:53:20.697Z,11.21
2023-04-18T20:55:48.153Z,11.19
2023-04-18T20:58:15.088Z,11.17
2023-04-18T21:00:41.758Z,11.17
2023-04-18T21:03:08.749Z,11.15
2023-04-18T21:05:35.709Z,11.15
2023-04-18T21:08:02.281Z,11.12
2023-04-18T21:10:28.857Z,11.09
2023-04-18T21:12:55.409Z,11.07
2023-04-18T21:15:22.344Z,11.05
2023-04-18T21:17:51.719Z,11.02
2023-04-18T21:20:18.924Z,10.99
2023-04-18T21:22:45.570Z,10.97
2023-04-18T21:25:12.439Z,10.95
2023-04-18T21:27:39.225Z,10.93
2023-04-18T21:30:06.736Z,10.91
2023-04-18T21:32:33.321Z,10.89
2023-04-18T21:35:02.741Z,10.85
2023-04-18T21:37:30.267Z,10.83
2023-04-18T21:39:56.744Z,10.82
2023-04-18T21:42:23.212Z,10.77
2023-04-18T21:44:49.748Z,10.74
2023-04-18T21:47:16.368Z,10.70
2023-04-18T21:49:42.940Z,10.69
2023-04-18T21:52:09.566Z,10.66
2023-04-18T21:54:36.085Z,10.63
2023-04-18T21:57:03.331Z,10.62
2023-04-18T21:59:30.587Z,10.59
2023-04-18T22:01:57.248Z,10.58
2023-04-18T22:04:26.196Z,10.57
2023-04-18T22:06:56.910Z,10.55
2023-04-18T22:09:23.915Z,10.53
2023-04-18T22:11:56.594Z,10.51
2023-04-18T22:14:24.819Z,10.49
2023-04-18T22:16:51.426Z,10.49
2023-04-18T22:19:19.405Z,10.47
2023-04-18T22:21:46.169Z,10.45
2023-04-18T22:24:12.868Z,10.45
2023-04-18T22:26:40.777Z,10.44
2023-04-18T22:29:07.575Z,10.45
2023-04-18T22:31:34.427Z,10.44
2023-04-18T22:34:01.162Z,10.41
2023-04-18T22:36:27.848Z,10.40
2023-04-18T22:38:54.459Z,10.38
2023-04-18T22:41:27.608Z,10.38
2023-04-18T22:43:54.708Z,10.34
2023-04-18T22:46:21.698Z,10.32
2023-04-18T22:48:49.263Z,10.30
2023-04-18T22:51:18.123Z,10.28
2023-04-18T22:53:44.736Z,10.26
2023-04-18T22:56:11.392Z,10.23
2023-04-18T22:58:38.120Z,10.19
2023-04-18T23:01:05.014Z,10.17
2023-04-18T23:03:34.400Z,10.13
2023-04-18T23:06:01.565Z,10.09
2023-04-18T23:08:29.195Z,10.06
2023-04-18T23:10:55.805Z,10.03
2023-04-18T23:13:22.321Z,10.01
2023-04-18T23:15:48.861Z,9.99
2023-04-18T23:18:15.526Z,9.99
2023-04-18T23:20:42.194Z,9.98
2023-04-18T23:23:10.110Z,9.96
2023-04-18T23:25:36.676Z,9.93
2023-04-18T23:28:03.275Z,9.87
2023-04-18T23:30:29.812Z,9.82
2023-04-18T23:32:56.578Z,9.77
2023-04-18T23:35:23.130Z,9.72
2023-04-18T23:37:50.170Z,9.67
2023-04-18T23:40:16.755Z,9.62
2023-04-18T23:42:43.845Z,9.50
2023-04-18T23:45:11.312Z,9.37
2023-04-18T23:47:38.011Z,9.26
2023-04-18T23:50:04.996Z,9.16
2023-04-18T23:52:31.508Z,9.08
2023-04-18T23:55:01.504Z,8.99
2023-04-18T23:57:28.421Z,8.94
2023-04-18T23:59:55.164Z,8.89
